Time,TemperatureF,DewpointF,PressureIn,WindDirection,WindDirectionDegrees,WindSpeedMPH,WindSpeedGustMPH,Humidity,HourlyPrecipIn,Conditions,Clouds,dailyrainin,SolarRadiationWatts/m^2,SoftwareType,DateUTC
2014-07-29 00:01:00,82.4,74.9,29.90,WSW,242,4.0,5.0,78,0.00,,,0.00,0.00,VWS V15.00,2014-07-29 04:01:00,
2014-07-29 00:06:00,82.2,75.0,29.90,SW,225,3.0,6.0,79,0.00,,,0.00,0.00,VWS V15.00,2014-07-29 04:06:00,
2014-07-29 00:11:00,82.0,74.8,29.90,WSW,252,4.0,6.0,79,0.00,,,0.00,0.00,VWS V15.00,2014-07-29 04:11:00,
2014-07-29 00:16:00,82.0,74.8,29.90,SW,236,5.0,5.0,79,0.00,,,0.00,0.00,VWS V15.00,2014-07-29 04:16:00,
2014-07-29 00:21:00,81.8,74.7,29.90,WSW,240,5.0,5.0,79,0.00,,,0.00,0.00,VWS V15.00,2014-07-29 04:21:00,
2014-07-29 00:26:00,81.8,75.0,29.90,WSW,256,2.0,6.0,80,0.00,,,0.00,0.00,VWS V15.00,2014-07-29 04:26:00,
2014-07-29 00:31:00,81.6,74.8,29.89,West,260,1.0,0.0,80,0.00,,,0.00,0.00,VWS V15.00,2014-07-29 04:31:00,
2014-07-29 00:36:00,81.6,74.8,29.89,WSW,245,1.0,2.0,80,0.00,,,0.00,0.00,VWS V15.00,2014-07-29 04:36:00,
2014-07-29 00:41:00,81.4,74.6,29.89,SW,236,1.0,1.0,80,0.00,,,0.00,0.00,VWS V15.00,2014-07-29 04:41:00,
2014-07-29 00:46:00,81.4,74.6,29.89,SW,236,1.0,0.0,80,0.00,,,0.00,0.00,VWS V15.00,2014-07-29 04:46:00,
2014-07-29 00:51:00,81.2,74.8,29.89,WSW,238,1.0,0.0,81,0.00,,,0.00,0.00,VWS V15.00,2014-07-29 04:51:00,
2014-07-29 00:56:00,81.2,74.4,29.89,WSW,248,1.0,1.0,80,0.00,,,0.00,0.00,VWS V15.00,2014-07-29 04:56:00,
2014-07-29 01:01:00,81.1,74.7,29.89,WSW,248,1.0,0.0,81,0.00,,,0.00,0.00,VWS V15.00,2014-07-29 05:01:00,
2014-07-29 01:06:00,80.9,74.5,29.89,WSW,248,1.0,0.0,81,0.00,,,0.00,0.00,VWS V15.00,2014-07-29 05:06:00,
2014-07-29 01:11:00,80.9,74.5,29.89,WSW,247,1.0,0.0,81,0.00,,,0.00,0.00,VWS V15.00,2014-07-29 05:11:00,
2014-07-29 01:16:00,80.7,74.7,29.88,WSW,247,1.0,0.0,82,0.00,,,0.00,0.00,VWS V15.00,2014-07-29 05:16:00,
2014-07-29 01:21:00,80.7,74.7,29.88,WSW,247,1.0,0.0,82,0.00,,,0.00,0.00,VWS V15.00,2014-07-29 05:21:00,
2014-07-29 01:26:00,80.5,74.5,29.88,WSW,247,1.0,1.0,82,0.00,,,0.00,0.00,VWS V15.00,2014-07-29 05:26:00,
2014-07-29 01:31:00,80.5,74.9,29.88,WSW,247,4.0,4.0,83,0.00,,,0.00,0.00,VWS V15.00,2014-07-29 05:31:00,
2014-07-29 01:36:00,80.3,74.3,29.88,WSW,247,1.0,0.0,82,0.00,,,0.00,0.00,VWS V15.00,2014-07-29 05:36:00,
2014-07-29 01:41:00,80.1,74.5,29.88,WSW,247,1.0,0.0,83,0.00,,,0.00,0.00,VWS V15.00,2014-07-29 05:41:00,
2014-07-29 01:46:00,80.1,74.5,29.88,WSW,247,1.0,1.0,83,0.00,,,0.00,0.00,VWS V15.00,2014-07-29 05:46:00,
2014-07-29 01:51:00,79.9,74.3,29.88,WSW,247,1.0,0.0,83,0.00,,,0.00,0.00,VWS V15.00,2014-07-29 05:51:00,
2014-07-29 01:56:00,79.9,74.3,29.88,WSW,247,1.0,0.0,83,0.00,,,0.00,0.00,VWS V15.00,2014-07-29 05:56:00,
2014-07-29 02:01:00,79.9,74.3,29.87,WSW,247,2.0,3.0,83,0.00,,,0.00,0.00,VWS V15.00,2014-07-29 06:01:00,
2014-07-29 02:06:00,79.8,74.5,29.87,WSW,247,1.0,0.0,84,0.00,,,0.00,0.00,VWS V15.00,2014-07-29 06:06:00,
2014-07-29 02:11:00,79.8,74.5,29.87,WSW,247,1.0,0.0,84,0.00,,,0.00,0.00,VWS V15.00,2014-07-29 06:11:00,
2014-07-29 02:16:00,79.6,74.3,29.86,WSW,248,1.0,0.0,84,0.00,,,0.00,0.00,VWS V15.00,2014-07-29 06:16:00,
2014-07-29 02:21:00,79.6,74.3,29.86,SW,226,1.0,0.0,84,0.00,,,0.00,0.00,VWS V15.00,2014-07-29 06:21:00,
2014-07-29 02:26:00,79.4,74.2,29.86,SW,226,1.0,0.0,84,0.00,,,0.00,0.00,VWS V15.00,2014-07-29 06:26:00,
2014-07-29 02:31:00,79.4,74.5,29.86,SW,226,1.0,0.0,85,0.00,,,0.00,0.00,VWS V15.00,2014-07-29 06:31:00,
2014-07-29 02:36:00,79.2,74.3,29.86,SW,227,1.0,0.0,85,0.00,,,0.00,0.00,VWS V15.00,2014-07-29 06:36:00,
2014-07-29 02:41:00,79.2,74.3,29.86,SW,227,1.0,0.0,85,0.00,,,0.00,0.00,VWS V15.00,2014-07-29 06:41:00,
2014-07-29 02:46:00,79.0,74.1,29.86,SW,227,1.0,0.0,85,0.00,,,0.00,0.00,VWS V15.00,2014-07-29 06:46:00,
2014-07-29 02:51:00,78.8,73.9,29.86,SW,227,1.0,0.0,85,0.00,,,0.00,0.00,VWS V15.00,2014-07-29 06:51:00,
2014-07-29 02:56:00,78.8,73.9,29.86,SW,230,4.0,5.0,85,0.00,,,0.00,0.00,VWS V15.00,2014-07-29 06:56:00,
2014-07-29 03:01:00,78.8,74.3,29.86,SW,231,1.0,0.0,86,0.00,,,0.00,0.00,VWS V15.00,2014-07-29 07:01:00,
2014-07-29 03:06:00,78.8,74.3,29.86,SW,233,1.0,0.0,86,0.00,,,0.00,0.00,VWS V15.00,2014-07-29 07:06:00,
2014-07-29 03:11:00,78.6,74.1,29.86,SW,234,3.0,3.0,86,0.00,,,0.00,0.00,VWS V15.00,2014-07-29 07:11:00,
2014-07-29 03:16:00,78.6,74.1,29.85,SW,234,1.0,0.0,86,0.00,,,0.00,0.00,VWS V15.00,2014-07-29 07:16:00,
2014-07-29 03:21:00,78.6,74.1,29.85,WSW,240,1.0,0.0,86,0.00,,,0.00,0.00,VWS V15.00,2014-07-29 07:21:00,
2014-07-29 03:26:00,78.6,74.1,29.85,WSW,240,1.0,0.0,86,0.00,,,0.00,0.00,VWS V15.00,2014-07-29 07:26:00,
2014-07-29 03:31:00,78.5,74.3,29.85,WSW,240,3.0,3.0,87,0.00,,,0.00,0.00,VWS V15.00,2014-07-29 07:31:00,
2014-07-29 03:36:00,78.5,74.3,29.85,WSW,240,1.0,0.0,87,0.00,,,0.00,0.00,VWS V15.00,2014-07-29 07:36:00,
2014-07-29 03:41:00,78.3,74.1,29.85,WSW,240,1.0,0.0,87,0.00,,,0.00,0.00,VWS V15.00,2014-07-29 07:41:00,
2014-07-29 03:46:00,78.3,74.1,29.85,WSW,240,1.0,2.0,87,0.00,,,0.00,0.00,VWS V15.00,2014-07-29 07:46:00,
2014-07-29 03:51:00,78.3,74.1,29.85,WSW,240,1.0,3.0,87,0.00,,,0.00,0.00,VWS V15.00,2014-07-29 07:51:00,
2014-07-29 03:56:00,78.3,74.1,29.85,South,191,2.0,4.0,87,0.00,,,0.00,0.00,VWS V15.00,2014-07-29 07:56:00,
2014-07-29 04:01:00,78.3,74.1,29.85,South,191,1.0,1.0,87,0.00,,,0.00,0.00,VWS V15.00,2014-07-29 08:01:00,
2014-07-29 04:06:00,78.1,73.9,29.85,South,191,1.0,3.0,87,0.00,,,0.00,0.00,VWS V15.00,2014-07-29 08:06:00,
2014-07-29 04:11:00,78.1,73.9,29.85,South,191,1.0,2.0,87,0.00,,,0.00,0.00,VWS V15.00,2014-07-29 08:11:00,
2014-07-29 04:16:00,78.1,73.9,29.85,South,191,1.0,1.0,87,0.00,,,0.00,0.00,VWS V15.00,2014-07-29 08:16:00,
2014-07-29 04:21:00,78.1,73.9,29.85,South,191,1.0,1.0,87,0.00,,,0.00,0.00,VWS V15.00,2014-07-29 08:21:00,
2014-07-29 04:26:00,78.1,73.9,29.85,South,191,1.0,0.0,87,0.00,,,0.00,0.00,VWS V15.00,2014-07-29 08:26:00,
2014-07-29 04:31:00,78.1,74.3,29.85,South,191,1.0,1.0,88,0.00,,,0.00,0.00,VWS V15.00,2014-07-29 08:31:00,
2014-07-29 04:36:00,78.1,74.3,29.85,South,191,1.0,4.0,88,0.00,,,0.00,0.00,VWS V15.00,2014-07-29 08:36:00,
2014-07-29 04:41:00,78.1,74.3,29.85,South,191,1.0,4.0,88,0.00,,,0.00,0.00,VWS V15.00,2014-07-29 08:41:00,
2014-07-29 04:46:00,78.1,74.3,29.85,South,191,1.0,3.0,88,0.00,,,0.00,0.00,VWS V15.00,2014-07-29 08:46:00,
2014-07-29 04:51:00,77.9,74.1,29.85,South,191,1.0,0.0,88,0.00,,,0.00,0.00,VWS V15.00,2014-07-29 08:51:00,
2014-07-29 04:56:00,77.9,74.1,29.85,South,191,1.0,0.0,88,0.00,,,0.00,0.00,VWS V15.00,2014-07-29 08:56:00,
2014-07-29 05:01:00,77.9,74.1,29.85,South,191,1.0,1.0,88,0.00,,,0.00,0.00,VWS V15.00,2014-07-29 09:01:00,
2014-07-29 05:06:00,77.7,73.9,29.85,South,191,1.0,3.0,88,0.00,,,0.00,0.00,VWS V15.00,2014-07-29 09:06:00,
2014-07-29 05:11:00,77.7,73.9,29.85,South,191,1.0,3.0,88,0.00,,,0.00,0.00,VWS V15.00,2014-07-29 09:11:00,
2014-07-29 05:16:00,77.7,74.2,29.85,South,191,1.0,3.0,89,0.00,,,0.00,0.00,VWS V15.00,2014-07-29 09:16:00,
2014-07-29 05:21:00,77.7,74.2,29.85,South,191,1.0,0.0,89,0.00,,,0.00,0.00,VWS V15.00,2014-07-29 09:21:00,
2014-07-29 05:25:00,77.7,73.9,29.85,South,191,1.0,0.0,88,0.00,,,0.00,0.00,VWS V15.00,2014-07-29 09:25:00,
2014-07-29 05:30:00,77.7,73.9,29.85,South,191,1.0,0.0,88,0.00,,,0.00,0.00,VWS V15.00,2014-07-29 09:30:00,
2014-07-29 05:35:00,77.6,74.1,29.85,South,191,1.0,0.0,89,0.00,,,0.00,0.00,VWS V15.00,2014-07-29 09:35:00,
2014-07-29 05:40:00,77.6,74.1,29.85,South,191,1.0,0.0,89,0.00,,,0.00,0.00,VWS V15.00,2014-07-29 09:40:00,
2014-07-29 05:45:00,77.4,73.9,29.85,South,191,1.0,0.0,89,0.00,,,0.00,0.00,VWS V15.00,2014-07-29 09:45:00,
2014-07-29 05:50:00,77.2,73.7,29.85,South,191,1.0,0.0,89,0.00,,,0.00,0.00,VWS V15.00,2014-07-29 09:50:00,
2014-07-29 05:55:00,77.2,73.7,29.85,South,191,1.0,0.0,89,0.00,,,0.00,0.00,VWS V15.00,2014-07-29 09:55:00,
2014-07-29 06:00:00,77.0,73.5,29.85,South,191,1.0,0.0,89,0.00,,,0.00,0.00,VWS V15.00,2014-07-29 10:00:00,
2014-07-29 06:05:00,77.0,73.5,29.85,South,191,1.0,0.0,89,0.00,,,0.00,0.00,VWS V15.00,2014-07-29 10:05:00,
2014-07-29 06:10:00,76.8,73.3,29.85,South,191,1.0,0.0,89,0.00,,,0.00,0.00,VWS V15.00,2014-07-29 10:10:00,
2014-07-29 06:15:00,76.8,73.7,29.85,South,191,1.0,1.0,90,0.00,,,0.00,0.00,VWS V15.00,2014-07-29 10:15:00,
2014-07-29 06:20:00,76.8,73.7,29.85,South,191,1.0,0.0,90,0.00,,,0.00,0.00,VWS V15.00,2014-07-29 10:20:00,
2014-07-29 06:25:00,76.8,73.7,29.85,South,191,1.0,0.0,90,0.00,,,0.00,0.00,VWS V15.00,2014-07-29 10:25:00,
2014-07-29 06:30:00,76.8,73.7,29.86,South,191,1.0,0.0,90,0.00,,,0.00,0.00,VWS V15.00,2014-07-29 10:30:00,
2014-07-29 06:35:00,76.8,73.7,29.86,South,191,1.0,0.0,90,0.00,,,0.00,0.00,VWS V15.00,2014-07-29 10:35:00,
2014-07-29 06:40:00,76.7,73.6,29.86,South,191,1.0,0.0,90,0.00,,,0.00,0.00,VWS V15.00,2014-07-29 10:40:00,
2014-07-29 06:45:00,76.7,73.6,29.86,South,191,1.0,0.0,90,0.00,,,0.00,0.00,VWS V15.00,2014-07-29 10:45:00,
2014-07-29 06:50:00,76.7,73.9,29.86,South,191,1.0,0.0,91,0.00,,,0.00,0.00,VWS V15.00,2014-07-29 10:50:00,
2014-07-29 06:55:00,76.8,74.0,29.86,South,191,1.0,0.0,91,0.00,,,0.00,0.00,VWS V15.00,2014-07-29 10:55:00,
2014-07-29 07:00:00,76.7,73.9,29.85,South,191,1.0,0.0,91,0.00,,,0.00,0.00,VWS V15.00,2014-07-29 11:00:00,
2014-07-29 07:05:00,76.7,73.9,29.85,South,191,1.0,0.0,91,0.00,,,0.00,0.00,VWS V15.00,2014-07-29 11:05:00,
2014-07-29 07:10:00,76.7,73.9,29.85,South,191,1.0,0.0,91,0.00,,,0.00,0.00,VWS V15.00,2014-07-29 11:10:00,
2014-07-29 07:15:00,76.8,74.0,29.86,South,191,1.0,0.0,91,0.00,,,0.00,0.00,VWS V15.00,2014-07-29 11:15:00,
2014-07-29 07:20:00,76.7,73.9,29.86,South,191,1.0,0.0,91,0.00,,,0.00,0.00,VWS V15.00,2014-07-29 11:20:00,
2014-07-29 07:25:00,76.8,74.0,29.86,South,191,1.0,0.0,91,0.00,,,0.00,0.00,VWS V15.00,2014-07-29 11:25:00,
2014-07-29 07:30:00,76.8,74.0,29.86,South,191,1.0,0.0,91,0.00,,,0.00,0.00,VWS V15.00,2014-07-29 11:30:00,
2014-07-29 07:35:00,77.0,74.2,29.86,South,191,1.0,0.0,91,0.00,,,0.00,0.00,VWS V15.00,2014-07-29 11:35:00,
2014-07-29 07:40:00,77.2,74.4,29.86,South,191,1.0,0.0,91,0.00,,,0.00,0.00,VWS V15.00,2014-07-29 11:40:00,
2014-07-29 07:45:00,77.4,74.9,29.86,South,191,1.0,1.0,92,0.00,,,0.00,0.00,VWS V15.00,2014-07-29 11:45:00,
2014-07-29 07:50:00,77.7,75.2,29.86,South,191,1.0,3.0,92,0.00,,,0.00,0.00,VWS V15.00,2014-07-29 11:50:00,
2014-07-29 07:55:00,78.1,75.6,29.86,South,191,1.0,3.0,92,0.00,,,0.00,0.00,VWS V15.00,2014-07-29 11:55:00,
2014-07-29 08:00:00,78.5,76.0,29.86,South,191,1.0,3.0,92,0.00,,,0.00,0.00,VWS V15.00,2014-07-29 12:00:00,
2014-07-29 08:05:00,79.0,76.2,29.86,SW,219,2.0,5.0,91,0.00,,,0.00,0.00,VWS V15.00,2014-07-29 12:05:00,
2014-07-29 08:10:00,79.6,76.4,29.86,SW,227,1.0,5.0,90,0.00,,,0.00,0.00,VWS V15.00,2014-07-29 12:10:00,
2014-07-29 08:15:00,80.1,76.2,29.86,WSW,238,4.0,6.0,88,0.00,,,0.00,0.00,VWS V15.00,2014-07-29 12:15:00,
2014-07-29 08:20:00,80.7,76.5,29.86,WSW,240,1.0,3.0,87,0.00,,,0.00,0.00,VWS V15.00,2014-07-29 12:20:00,
2014-07-29 08:25:00,81.1,76.5,29.86,West,259,3.0,7.0,86,0.00,,,0.00,0.00,VWS V15.00,2014-07-29 12:25:00,
2014-07-29 08:30:00,81.6,76.7,29.87,WSW,249,1.0,3.0,85,0.00,,,0.00,0.00,VWS V15.00,2014-07-29 12:30:00,
2014-07-29 08:35:00,82.0,76.7,29.87,WSW,251,1.0,3.0,84,0.00,,,0.00,0.00,VWS V15.00,2014-07-29 12:35:00,
2014-07-29 08:40:00,82.4,76.7,29.87,SW,236,6.0,7.0,83,0.00,,,0.00,0.00,VWS V15.00,2014-07-29 12:40:00,
2014-07-29 08:45:00,82.6,76.6,29.87,SW,221,5.0,7.0,82,0.00,,,0.00,0.00,VWS V15.00,2014-07-29 12:45:00,
2014-07-29 08:50:00,82.8,76.4,29.87,SW,236,3.0,7.0,81,0.00,,,0.00,0.00,VWS V15.00,2014-07-29 12:50:00,
2014-07-29 08:55:00,83.0,76.6,29.87,WSW,248,3.0,7.0,81,0.00,,,0.00,0.00,VWS V15.00,2014-07-29 12:55:00,
2014-07-29 09:00:00,83.4,77.0,29.88,West,262,4.0,8.0,81,0.00,,,0.00,0.00,VWS V15.00,2014-07-29 13:00:00,
2014-07-29 09:05:00,83.6,76.8,29.88,WSW,240,7.0,10.0,80,0.00,,,0.00,0.00,VWS V15.00,2014-07-29 13:05:00,
2014-07-29 09:10:00,84.0,76.8,29.88,WSW,247,5.0,8.0,79,0.00,,,0.00,0.00,VWS V15.00,2014-07-29 13:10:00,
2014-07-29 09:15:00,84.0,76.4,29.88,WSW,253,3.0,10.0,78,0.00,,,0.00,0.00,VWS V15.00,2014-07-29 13:15:00,
2014-07-29 09:20:00,84.3,76.7,29.88,WNW,287,5.0,9.0,78,0.00,,,0.00,0.00,VWS V15.00,2014-07-29 13:20:00,
2014-07-29 09:25:00,84.5,76.5,29.88,West,273,2.0,12.0,77,0.00,,,0.00,0.00,VWS V15.00,2014-07-29 13:25:00,
2014-07-29 09:30:00,84.9,76.5,29.88,WSW,238,1.0,7.0,76,0.00,,,0.00,0.00,VWS V15.00,2014-07-29 13:30:00,
2014-07-29 09:35:00,85.3,76.9,29.88,West,270,3.0,7.0,76,0.00,,,0.00,0.00,VWS V15.00,2014-07-29 13:35:00,
2014-07-29 09:40:00,85.7,76.9,29.88,NW,325,7.0,8.0,75,0.00,,,0.00,0.00,VWS V15.00,2014-07-29 13:40:00,
2014-07-29 09:45:00,85.9,76.7,29.88,West,267,7.0,9.0,74,0.00,,,0.00,0.00,VWS V15.00,2014-07-29 13:45:00,
2014-07-29 09:50:00,86.3,77.0,29.88,SSW,205,3.0,10.0,74,0.00,,,0.00,0.00,VWS V15.00,2014-07-29 13:50:00,
2014-07-29 09:55:00,86.5,76.8,29.88,SW,233,1.0,7.0,73,0.00,,,0.00,0.00,VWS V15.00,2014-07-29 13:55:00,
2014-07-29 10:00:00,86.7,77.0,29.88,WSW,256,5.0,7.0,73,0.00,,,0.00,0.00,VWS V15.00,2014-07-29 14:00:00,
2014-07-29 10:05:00,87.0,76.5,29.88,SW,229,8.0,11.0,71,0.00,,,0.00,0.00,VWS V15.00,2014-07-29 14:05:00,
2014-07-29 10:10:00,86.7,75.8,29.88,West,276,1.0,9.0,70,0.00,,,0.00,0.00,VWS V15.00,2014-07-29 14:10:00,
2014-07-29 10:15:00,87.2,76.2,29.88,West,270,9.0,9.0,70,0.00,,,0.00,0.00,VWS V15.00,2014-07-29 14:15:00,
2014-07-29 10:20:00,87.6,76.6,29.88,WSW,244,1.0,8.0,70,0.00,,,0.00,0.00,VWS V15.00,2014-07-29 14:20:00,
2014-07-29 10:25:00,88.0,75.7,29.88,West,273,4.0,6.0,67,0.00,,,0.00,0.00,VWS V15.00,2014-07-29 14:25:00,
2014-07-29 10:30:00,88.4,75.6,29.88,WSW,256,5.0,9.0,66,0.00,,,0.00,0.00,VWS V15.00,2014-07-29 14:30:00,
2014-07-29 10:35:00,88.4,76.5,29.88,WNW,297,1.0,5.0,68,0.00,,,0.00,0.00,VWS V15.00,2014-07-29 14:35:00,
2014-07-29 10:40:00,88.4,74.7,29.88,West,261,1.0,13.0,64,0.00,,,0.00,0.00,VWS V15.00,2014-07-29 14:40:00,
2014-07-29 10:45:00,88.0,75.2,29.88,WSW,238,7.0,8.0,66,0.00,,,0.00,0.00,VWS V15.00,2014-07-29 14:45:00,
2014-07-29 10:50:00,88.2,75.0,29.88,West,269,3.0,7.0,65,0.00,,,0.00,0.00,VWS V15.00,2014-07-29 14:50:00,
2014-07-29 10:55:00,88.6,75.3,29.88,WNW,294,3.0,9.0,65,0.00,,,0.00,0.00,VWS V15.00,2014-07-29 14:55:00,
2014-07-29 11:00:00,89.0,76.2,29.88,NW,304,2.0,9.0,66,0.00,,,0.00,0.00,VWS V15.00,2014-07-29 15:00:00,
2014-07-29 11:05:00,89.0,75.2,29.88,NW,320,4.0,7.0,64,0.00,,,0.00,0.00,VWS V15.00,2014-07-29 15:05:00,
2014-07-29 11:10:00,89.0,75.2,29.88,WNW,303,1.0,7.0,64,0.00,,,0.00,0.00,VWS V15.00,2014-07-29 15:10:00,
2014-07-29 11:15:00,89.3,76.9,29.88,SW,226,1.0,7.0,67,0.00,,,0.00,0.00,VWS V15.00,2014-07-29 15:15:00,
2014-07-29 11:20:00,89.7,75.0,29.88,SSW,193,3.0,7.0,62,0.00,,,0.00,0.00,VWS V15.00,2014-07-29 15:20:00,
2014-07-29 11:25:00,90.1,75.3,29.88,West,269,6.0,7.0,62,0.00,,,0.00,0.00,VWS V15.00,2014-07-29 15:25:00,
2014-07-29 11:30:00,90.3,74.5,29.88,SSW,192,5.0,8.0,60,0.00,,,0.00,0.00,VWS V15.00,2014-07-29 15:30:00,
2014-07-29 11:35:00,90.5,75.7,29.88,SW,225,10.0,10.0,62,0.00,,,0.00,0.00,VWS V15.00,2014-07-29 15:35:00,
2014-07-29 11:40:00,90.5,74.7,29.88,SW,229,6.0,9.0,60,0.00,,,0.00,0.00,VWS V15.00,2014-07-29 15:40:00,
2014-07-29 11:45:00,90.5,74.2,29.88,SW,236,8.0,8.0,59,0.00,,,0.00,0.00,VWS V15.00,2014-07-29 15:45:00,
2014-07-29 11:50:00,90.7,73.4,29.88,WNW,290,1.0,10.0,57,0.00,,,0.00,0.00,VWS V15.00,2014-07-29 15:50:00,
2014-07-29 11:55:00,90.5,73.2,29.88,West,271,4.0,9.0,57,0.00,,,0.00,0.00,VWS V15.00,2014-07-29 15:55:00,
2014-07-29 12:00:00,90.3,73.5,29.88,SW,233,1.0,7.0,58,0.00,,,0.00,0.00,VWS V15.00,2014-07-29 16:00:00,
2014-07-29 12:05:00,90.5,75.2,29.88,NW,307,2.0,5.0,61,0.00,,,0.00,0.00,VWS V15.00,2014-07-29 16:05:00,
2014-07-29 12:10:00,90.7,73.4,29.88,WSW,250,3.0,10.0,57,0.00,,,0.00,0.00,VWS V15.00,2014-07-29 16:10:00,
2014-07-29 12:15:00,91.0,74.2,29.87,WSW,247,5.0,8.0,58,0.00,,,0.00,0.00,VWS V15.00,2014-07-29 16:15:00,
2014-07-29 12:20:00,91.0,73.7,29.87,SW,234,1.0,6.0,57,0.00,,,0.00,0.00,VWS V15.00,2014-07-29 16:20:00,
2014-07-29 12:25:00,91.0,73.7,29.87,SW,215,1.0,6.0,57,0.00,,,0.00,0.00,VWS V15.00,2014-07-29 16:25:00,
2014-07-29 12:30:00,91.4,74.0,29.87,SW,236,2.0,5.0,57,0.00,,,0.00,0.00,VWS V15.00,2014-07-29 16:30:00,
2014-07-29 12:35:00,91.6,74.7,29.87,NW,325,1.0,7.0,58,0.00,,,0.00,0.00,VWS V15.00,2014-07-29 16:35:00,
2014-07-29 12:40:00,91.6,73.2,29.87,SW,234,6.0,6.0,55,0.00,,,0.00,0.00,VWS V15.00,2014-07-29 16:40:00,
2014-07-29 12:45:00,92.1,74.7,29.86,SSW,201,8.0,8.0,57,0.00,,,0.00,0.00,VWS V15.00,2014-07-29 16:45:00,
2014-07-29 12:50:00,92.3,73.8,29.86,West,262,2.0,8.0,55,0.00,,,0.00,0.00,VWS V15.00,2014-07-29 16:50:00,
2014-07-29 12:55:00,92.1,72.5,29.86,SSW,207,1.0,9.0,53,0.00,,,0.00,0.00,VWS V15.00,2014-07-29 16:55:00,
2014-07-29 13:00:00,92.3,72.7,29.86,SW,228,6.0,8.0,53,0.00,,,0.00,0.00,VWS V15.00,2014-07-29 17:00:00,
2014-07-29 13:05:00,92.7,74.2,29.86,WSW,246,6.0,7.0,55,0.00,,,0.00,0.00,VWS V15.00,2014-07-29 17:05:00,
2014-07-29 13:10:00,92.7,74.2,29.86,SSW,204,5.0,8.0,55,0.00,,,0.00,0.00,VWS V15.00,2014-07-29 17:10:00,
2014-07-29 13:15:00,92.5,73.4,29.86,West,261,1.0,10.0,54,0.00,,,0.00,0.00,VWS V15.00,2014-07-29 17:15:00,
2014-07-29 13:20:00,92.3,72.7,29.86,WNW,286,1.0,8.0,53,0.00,,,0.00,0.00,VWS V15.00,2014-07-29 17:20:00,
2014-07-29 13:25:00,92.5,74.0,29.86,SW,234,1.0,7.0,55,0.00,,,0.00,0.00,VWS V15.00,2014-07-29 17:25:00,
2014-07-29 13:30:00,92.7,73.6,29.85,WSW,247,7.0,7.0,54,0.00,,,0.00,0.00,VWS V15.00,2014-07-29 17:30:00,
2014-07-29 13:35:00,92.3,73.3,29.85,South,184,2.0,8.0,54,0.00,,,0.00,0.00,VWS V15.00,2014-07-29 17:35:00,
2014-07-29 13:40:00,92.1,74.7,29.85,SW,215,5.0,9.0,57,0.00,,,0.00,0.00,VWS V15.00,2014-07-29 17:40:00,
2014-07-29 13:45:00,91.8,73.9,29.85,SSW,208,3.0,8.0,56,0.00,,,0.00,0.00,VWS V15.00,2014-07-29 17:45:00,
2014-07-29 13:50:00,91.4,74.6,29.85,WSW,240,1.0,7.0,58,0.00,,,0.00,0.00,VWS V15.00,2014-07-29 17:50:00,
2014-07-29 13:55:00,91.6,73.7,29.85,SW,229,1.0,9.0,56,0.00,,,0.00,0.00,VWS V15.00,2014-07-29 17:55:00,
2014-07-29 14:00:00,92.1,73.6,29.85,SSW,207,3.0,8.0,55,0.00,,,0.00,0.00,VWS V15.00,2014-07-29 18:00:00,
2014-07-29 14:05:00,92.5,73.4,29.85,WSW,246,5.0,9.0,54,0.00,,,0.00,0.00,VWS V15.00,2014-07-29 18:05:00,
2014-07-29 14:10:00,92.7,73.6,29.85,South,191,1.0,10.0,54,0.00,,,0.00,0.00,VWS V15.00,2014-07-29 18:10:00,
2014-07-29 14:15:00,92.7,74.7,29.85,SSW,196,6.0,7.0,56,0.00,,,0.00,0.00,VWS V15.00,2014-07-29 18:15:00,
2014-07-29 14:20:00,92.3,74.9,29.85,SSE,157,3.0,9.0,57,0.00,,,0.00,0.00,VWS V15.00,2014-07-29 18:20:00,
2014-07-29 14:25:00,91.4,74.0,29.85,SSW,200,7.0,7.0,57,0.00,,,0.00,0.00,VWS V15.00,2014-07-29 18:25:00,
2014-07-29 14:30:00,90.3,73.5,29.85,WSW,244,7.0,10.0,58,0.00,,,0.00,0.00,VWS V15.00,2014-07-29 18:30:00,
2014-07-29 14:35:00,89.5,73.3,29.85,SW,234,1.0,4.0,59,0.00,,,0.00,0.00,VWS V15.00,2014-07-29 18:35:00,
2014-07-29 14:40:00,89.3,73.1,29.85,SSW,211,4.0,4.0,59,0.00,,,0.00,0.00,VWS V15.00,2014-07-29 18:40:00,
2014-07-29 14:45:00,89.9,72.6,29.85,SSW,207,1.0,5.0,57,0.00,,,0.00,0.00,VWS V15.00,2014-07-29 18:45:00,
2014-07-29 14:50:00,90.3,74.0,29.83,SSW,208,1.0,3.0,59,0.00,,,0.00,0.00,VWS V15.00,2014-07-29 18:50:00,
2014-07-29 14:55:00,90.7,75.4,29.83,SSW,205,2.0,5.0,61,0.00,,,0.00,0.00,VWS V15.00,2014-07-29 18:55:00,
2014-07-29 14:59:00,91.2,75.9,29.83,SSW,202,1.0,4.0,61,0.00,,,0.00,0.00,VWS V15.00,2014-07-29 18:59:00,